Time;durP1;ratioP1;P1;durP2;ratioP2;P2;SDS_P1;SDS_P2;PMS_P1;PMS_P2;Temp;Humidity;BMP_temperature;BMP_pressure;BME280_temperature;BME280_humidity;BME280_pressure;Samples;Min_cycle;Max_cycle;Signal;HPM_P1;HPM_P2
2021/03/15 00:01:44;;;;;;;6.63;2.43;;;;;;;;;;5060153;28;20452;-76
2021/03/15 00:04:12;;;;;;;4.27;1.73;;;;;;;;;;5059425;28;20447;-74
2021/03/15 00:06:40;;;;;;;10.73;3.00;;;;;;;;;;5058082;28;20966;-74
2021/03/15 00:09:09;;;;;;;5.27;1.70;;;;;;;;;;5059680;28;20925;-74
2021/03/15 00:11:37;;;;;;;3.50;1.40;;;;;;;;;;5058004;28;20929;-74
2021/03/15 00:14:05;;;;;;;6.20;1.53;;;;;;;;;;5059300;28;20892;-75
2021/03/15 00:16:32;;;;;;;12.90;3.53;;;;;;;;;;5059353;28;20449;-74
2021/03/15 00:19:00;;;;;;;7.33;2.33;;;;;;;;;;5057286;28;20902;-74
2021/03/15 00:21:27;;;;;;;12.27;3.93;;;;;;;;;;5059328;28;20454;-74
2021/03/15 00:23:55;;;;;;;9.40;2.70;;;;;;;;;;5057891;28;20483;-74
2021/03/15 00:26:22;;;;;;;6.00;2.10;;;;;;;;;;5058204;28;20474;-74
2021/03/15 00:28:50;;;;;;;17.77;2.90;;;;;;;;;;5057660;28;20443;-74
2021/03/15 00:31:17;;;;;;;10.80;2.57;;;;;;;;;;5058766;28;20724;-74
2021/03/15 00:33:45;;;;;;;10.80;2.00;;;;;;;;;;5057499;28;20455;-74
2021/03/15 00:36:12;;;;;;;10.27;1.97;;;;;;;;;;5057761;28;20861;-73
2021/03/15 00:38:40;;;;;;;8.30;2.07;;;;;;;;;;5057300;28;20604;-74
2021/03/15 00:41:08;;;;;;;6.80;2.17;;;;;;;;;;5059533;28;20457;-74
2021/03/15 00:43:35;;;;;;;10.20;2.90;;;;;;;;;;5056599;28;20510;-73
2021/03/15 00:46:02;;;;;;;9.33;2.20;;;;;;;;;;5059022;28;20469;-74
2021/03/15 00:48:30;;;;;;;11.73;2.80;;;;;;;;;;5059831;28;20453;-73
2021/03/15 00:50:57;;;;;;;15.27;3.40;;;;;;;;;;5076684;28;20520;-73
2021/03/15 00:53:25;;;;;;;9.57;2.57;;;;;;;;;;5079155;28;20445;-73
2021/03/15 00:55:52;;;;;;;12.70;3.40;;;;;;;;;;5078726;28;20454;-74
2021/03/15 00:58:21;;;;;;;8.87;2.60;;;;;;;;;;5071589;28;20457;-74
2021/03/15 01:00:49;;;;;;;11.30;2.70;;;;;;;;;;5058589;28;20458;-74
2021/03/15 01:03:16;;;;;;;4.20;1.90;;;;;;;;;;5059044;28;20453;-74
2021/03/15 01:05:44;;;;;;;12.00;2.80;;;;;;;;;;5056830;28;20463;-74
2021/03/15 01:08:12;;;;;;;11.57;2.67;;;;;;;;;;5058668;28;20455;-74
2021/03/15 01:10:41;;;;;;;6.50;2.20;;;;;;;;;;5056901;28;20523;-74
2021/03/15 01:13:09;;;;;;;11.80;3.03;;;;;;;;;;5058317;28;20881;-74
2021/03/15 01:15:37;;;;;;;13.83;2.97;;;;;;;;;;5058699;28;20901;-77
2021/03/15 01:18:05;;;;;;;9.37;3.47;;;;;;;;;;5056982;28;20434;-74
2021/03/15 01:20:32;;;;;;;11.13;3.63;;;;;;;;;;5058212;28;20500;-74
2021/03/15 01:23:00;;;;;;;10.93;2.60;;;;;;;;;;5058719;28;20439;-74
2021/03/15 01:25:30;;;;;;;4.63;1.83;;;;;;;;;;5056984;28;20489;-74
2021/03/15 01:27:58;;;;;;;9.90;3.43;;;;;;;;;;5057886;28;20442;-74
2021/03/15 01:30:27;;;;;;;11.60;3.50;;;;;;;;;;5061392;28;20520;-74
2021/03/15 01:32:59;;;;;;;6.80;2.20;;;;;;;;;;5076399;28;20453;-74
2021/03/15 01:35:27;;;;;;;5.00;1.70;;;;;;;;;;5078962;28;20462;-74
2021/03/15 01:37:54;;;;;;;10.33;2.50;;;;;;;;;;5076810;28;20512;-74
2021/03/15 01:40:22;;;;;;;9.40;2.33;;;;;;;;;;5077671;28;20503;-74
2021/03/15 01:42:49;;;;;;;7.50;2.30;;;;;;;;;;5077212;28;20537;-74
2021/03/15 01:45:17;;;;;;;9.60;2.90;;;;;;;;;;5066736;28;20480;-74
2021/03/15 01:47:46;;;;;;;8.07;2.10;;;;;;;;;;5066654;28;20494;-74
2021/03/15 01:50:16;;;;;;;6.20;2.00;;;;;;;;;;5074578;28;20452;-74
2021/03/15 01:52:49;;;;;;;11.33;2.37;;;;;;;;;;5056530;28;20451;-74
2021/03/15 01:55:17;;;;;;;8.63;2.50;;;;;;;;;;5062328;28;20462;-74
2021/03/15 01:57:46;;;;;;;7.53;2.57;;;;;;;;;;5062277;28;20446;-74
2021/03/15 02:00:15;;;;;;;9.37;3.30;;;;;;;;;;5061057;28;20493;-74
2021/03/15 02:02:43;;;;;;;4.20;1.70;;;;;;;;;;5061088;28;20524;-74
2021/03/15 02:05:11;;;;;;;8.77;2.20;;;;;;;;;;5061153;28;20465;-74
2021/03/15 02:07:39;;;;;;;13.47;2.43;;;;;;;;;;5060950;28;20739;-74
2021/03/15 02:10:08;;;;;;;6.40;2.17;;;;;;;;;;5061263;28;20457;-74
2021/03/15 02:12:59;;;;;;;3.77;1.90;;;;;;;;;;5060345;28;20740;-74
2021/03/15 02:15:30;;;;;;;8.20;1.57;;;;;;;;;;5045309;28;20462;-74
2021/03/15 02:18:11;;;;;;;4.20;1.73;;;;;;;;;;5062199;28;20459;-74
2021/03/15 02:21:05;;;;;;;3.70;1.87;;;;;;;;;;5060376;28;20488;-73
2021/03/15 02:23:35;;;;;;;6.23;2.53;;;;;;;;;;5060232;28;20457;-74
2021/03/15 02:26:23;;;;;;;8.70;2.50;;;;;;;;;;5061088;28;20469;-74
2021/03/15 02:29:00;;;;;;;8.03;2.10;;;;;;;;;;5056845;28;20456;-73
2021/03/15 02:31:37;;;;;;;7.83;2.43;;;;;;;;;;5059572;28;20457;-73
2021/03/15 02:34:16;;;;;;;5.40;2.63;;;;;;;;;;5061630;28;20453;-74
2021/03/15 02:36:47;;;;;;;10.57;2.20;;;;;;;;;;5061654;28;20932;-74
2021/03/15 02:39:17;;;;;;;7.00;1.90;;;;;;;;;;5059538;28;20885;-74
2021/03/15 02:41:45;;;;;;;6.50;3.00;;;;;;;;;;5064360;28;20748;-74
2021/03/15 02:44:12;;;;;;;4.70;2.00;;;;;;;;;;5080519;28;20479;-74
2021/03/15 02:46:42;;;;;;;7.50;2.40;;;;;;;;;;5080118;28;20461;-74
2021/03/15 02:49:11;;;;;;;8.33;2.47;;;;;;;;;;5081377;28;20479;-74
2021/03/15 02:51:39;;;;;;;3.50;1.73;;;;;;;;;;5081045;28;20847;-74
2021/03/15 02:54:09;;;;;;;17.43;3.20;;;;;;;;;;5079470;28;20456;-74
2021/03/15 02:56:39;;;;;;;7.37;2.70;;;;;;;;;;5081023;28;20450;-74
2021/03/15 02:59:07;;;;;;;6.97;2.50;;;;;;;;;;5080919;28;20892;-74
2021/03/15 03:01:35;;;;;;;15.03;3.67;;;;;;;;;;5079529;28;20460;-74
2021/03/15 03:04:03;;;;;;;5.63;3.07;;;;;;;;;;5080405;28;20461;-74
2021/03/15 03:06:32;;;;;;;6.03;3.17;;;;;;;;;;5078267;28;20476;-74
2021/03/15 03:09:00;;;;;;;5.90;2.67;;;;;;;;;;5080485;28;20486;-74
2021/03/15 03:11:29;;;;;;;19.80;3.43;;;;;;;;;;5074743;28;20454;-75
2021/03/15 03:14:00;;;;;;;11.97;3.40;;;;;;;;;;5058988;28;20719;-74
2021/03/15 03:16:31;;;;;;;6.80;2.40;;;;;;;;;;5056359;28;20466;-74
2021/03/15 03:18:59;;;;;;;6.73;4.30;;;;;;;;;;5058937;28;20542;-74
2021/03/15 03:21:26;;;;;;;11.63;3.23;;;;;;;;;;5058306;28;20473;-74
2021/03/15 03:23:56;;;;;;;12.33;2.87;;;;;;;;;;5071401;28;20462;-74
2021/03/15 03:26:24;;;;;;;8.90;3.37;;;;;;;;;;5078525;28;20492;-74
2021/03/15 03:28:54;;;;;;;4.27;2.07;;;;;;;;;;5080696;28;20458;-74
2021/03/15 03:31:22;;;;;;;5.87;2.80;;;;;;;;;;5079612;28;20454;-75
2021/03/15 03:33:50;;;;;;;10.53;2.63;;;;;;;;;;5074936;28;20459;-73
2021/03/15 03:36:17;;;;;;;10.47;3.30;;;;;;;;;;5060171;28;20909;-73
2021/03/15 03:38:45;;;;;;;8.97;2.67;;;;;;;;;;5058345;28;20497;-74
2021/03/15 03:41:12;;;;;;;9.13;3.23;;;;;;;;;;5059939;28;20451;-74
2021/03/15 03:43:41;;;;;;;12.40;3.80;;;;;;;;;;5059922;28;20778;-74
2021/03/15 03:46:11;;;;;;;7.40;3.53;;;;;;;;;;5058829;28;20453;-74
2021/03/15 03:48:38;;;;;;;6.67;2.97;;;;;;;;;;5059856;28;20565;-74
2021/03/15 03:51:06;;;;;;;5.83;2.27;;;;;;;;;;5059919;28;20933;-74
2021/03/15 03:53:37;;;;;;;10.83;3.90;;;;;;;;;;5058637;28;20472;-73
2021/03/15 03:56:07;;;;;;;11.63;4.17;;;;;;;;;;5060137;28;20886;-74
2021/03/15 03:58:38;;;;;;;4.40;2.83;;;;;;;;;;5059581;28;20515;-73
2021/03/15 04:01:06;;;;;;;9.50;4.00;;;;;;;;;;5057694;28;20468;-74
2021/03/15 04:03:35;;;;;;;4.13;1.73;;;;;;;;;;5059170;28;20514;-73
2021/03/15 04:06:05;;;;;;;9.67;4.37;;;;;;;;;;5059490;28;20454;-73
2021/03/15 04:08:34;;;;;;;8.80;2.70;;;;;;;;;;5057514;28;20473;-74
2021/03/15 04:11:02;;;;;;;10.97;2.87;;;;;;;;;;5059595;28;20448;-72
2021/03/15 04:13:32;;;;;;;8.30;3.47;;;;;;;;;;5057762;28;20472;-73
2021/03/15 04:16:00;;;;;;;6.30;3.20;;;;;;;;;;5060034;28;20450;-73
2021/03/15 04:18:28;;;;;;;8.60;3.40;;;;;;;;;;5059602;28;20458;-74
2021/03/15 04:20:57;;;;;;;7.00;4.93;;;;;;;;;;5065199;28;20451;-74
2021/03/15 04:23:29;;;;;;;8.30;4.57;;;;;;;;;;5079171;28;20457;-74
2021/03/15 04:25:59;;;;;;;7.27;3.57;;;;;;;;;;5063137;28;20434;-74
2021/03/15 04:28:27;;;;;;;8.07;3.77;;;;;;;;;;5058315;28;20494;-75
2021/03/15 04:30:55;;;;;;;9.17;4.20;;;;;;;;;;5066480;28;20454;-74
2021/03/15 04:33:22;;;;;;;7.50;4.10;;;;;;;;;;5077679;28;20724;-74
2021/03/15 04:35:50;;;;;;;20.17;6.93;;;;;;;;;;5079621;28;20468;-74
2021/03/15 04:38:22;;;;;;;7.40;4.00;;;;;;;;;;5074144;28;20472;-75
2021/03/15 04:41:08;;;;;;;5.57;3.63;;;;;;;;;;5071802;28;20473;-74
2021/03/15 04:43:36;;;;;;;11.90;4.97;;;;;;;;;;5059092;28;20458;-74
2021/03/15 04:46:04;;;;;;;5.90;3.17;;;;;;;;;;5057484;28;20454;-74
2021/03/15 04:48:31;;;;;;;6.90;2.97;;;;;;;;;;5059157;28;20472;-74
2021/03/15 04:51:02;;;;;;;10.07;4.40;;;;;;;;;;5059026;28;20450;-74
2021/03/15 04:53:33;;;;;;;7.13;4.77;;;;;;;;;;5057871;28;20511;-74
2021/03/15 04:56:04;;;;;;;6.00;2.87;;;;;;;;;;5058872;28;20493;-74
2021/03/15 04:58:32;;;;;;;11.07;4.07;;;;;;;;;;5070530;28;20458;-74
2021/03/15 05:01:04;;;;;;;7.73;4.37;;;;;;;;;;5079008;28;20752;-74
2021/03/15 05:03:32;;;;;;;7.20;4.17;;;;;;;;;;5076781;28;20450;-74
2021/03/15 05:06:00;;;;;;;4.93;3.50;;;;;;;;;;5067137;28;20451;-74
2021/03/15 05:08:29;;;;;;;7.60;4.07;;;;;;;;;;5072542;28;20465;-74
2021/03/15 05:11:01;;;;;;;8.40;3.30;;;;;;;;;;5056500;28;20450;-74
2021/03/15 05:13:29;;;;;;;12.70;4.83;;;;;;;;;;5056120;28;20466;-73
2021/03/15 05:15:58;;;;;;;6.37;3.77;;;;;;;;;;5067778;28;20798;-74
2021/03/15 05:18:26;;;;;;;6.90;4.63;;;;;;;;;;5074938;28;20466;-74
2021/03/15 05:20:53;;;;;;;8.60;4.57;;;;;;;;;;5066414;28;20490;-74
2021/03/15 05:23:21;;;;;;;6.13;3.10;;;;;;;;;;5057879;28;20950;-74
2021/03/15 05:25:51;;;;;;;7.30;3.90;;;;;;;;;;5067282;28;20459;-73
2021/03/15 05:28:20;;;;;;;6.93;5.00;;;;;;;;;;5077285;28;20469;-73
2021/03/15 05:30:48;;;;;;;8.27;4.13;;;;;;;;;;5073780;28;20454;-74
2021/03/15 05:33:18;;;;;;;6.30;4.60;;;;;;;;;;5057720;28;20459;-73
2021/03/15 05:35:46;;;;;;;5.93;3.93;;;;;;;;;;5057644;28;20587;-74
2021/03/15 05:38:14;;;;;;;6.17;3.57;;;;;;;;;;5056434;28;20523;-74
2021/03/15 05:40:43;;;;;;;8.30;2.97;;;;;;;;;;5057904;28;20479;-73
2021/03/15 05:43:28;;;;;;;8.70;4.87;;;;;;;;;;5057404;28;20459;-73
2021/03/15 05:46:07;;;;;;;8.30;4.37;;;;;;;;;;5056484;28;20458;-73
2021/03/15 05:48:49;;;;;;;6.50;3.50;;;;;;;;;;5057091;28;20788;-73
2021/03/15 05:51:34;;;;;;;10.07;3.83;;;;;;;;;;5044209;28;20463;-74
2021/03/15 05:54:21;;;;;;;5.93;3.20;;;;;;;;;;5056132;28;20540;-73
2021/03/15 05:57:03;;;;;;;7.80;3.53;;;;;;;;;;5056347;28;20562;-73
2021/03/15 05:59:41;;;;;;;9.83;4.47;;;;;;;;;;5055256;28;20494;-74
2021/03/15 06:02:26;;;;;;;5.83;3.43;;;;;;;;;;5060687;28;20449;-74
2021/03/15 06:05:13;;;;;;;10.57;4.47;;;;;;;;;;5057719;28;20446;-74
2021/03/15 06:07:43;;;;;;;7.17;3.93;;;;;;;;;;5027317;28;20468;-74
2021/03/15 06:10:15;;;;;;;5.73;3.50;;;;;;;;;;5055151;28;20541;-74
2021/03/15 06:12:47;;;;;;;9.10;5.57;;;;;;;;;;5055031;28;20454;-74
2021/03/15 06:15:15;;;;;;;11.30;5.07;;;;;;;;;;5055554;28;20446;-74
2021/03/15 06:17:44;;;;;;;7.90;4.03;;;;;;;;;;5054816;28;20454;-74
2021/03/15 06:20:16;;;;;;;7.33;4.63;;;;;;;;;;5055129;28;20488;-74
2021/03/15 06:22:44;;;;;;;7.77;4.63;;;;;;;;;;5054985;28;20461;-73
2021/03/15 06:25:12;;;;;;;9.17;4.13;;;;;;;;;;5054305;28;21064;-74
2021/03/15 06:27:42;;;;;;;10.47;4.80;;;;;;;;;;5056829;28;20471;-75
2021/03/15 06:30:12;;;;;;;7.47;4.30;;;;;;;;;;5072410;28;20543;-74
2021/03/15 06:32:40;;;;;;;9.80;4.87;;;;;;;;;;5076175;28;20526;-74
2021/03/15 06:35:09;;;;;;;7.23;5.27;;;;;;;;;;5076444;28;20553;-74
2021/03/15 06:37:46;;;;;;;6.40;4.63;;;;;;;;;;5072661;28;20715;-75
2021/03/15 06:40:14;;;;;;;7.87;4.47;;;;;;;;;;5064735;28;20515;-74
2021/03/15 06:42:42;;;;;;;8.07;4.83;;;;;;;;;;5068447;28;20761;-73
2021/03/15 06:45:14;;;;;;;9.07;5.47;;;;;;;;;;5061338;28;20456;-72
2021/03/15 06:47:42;;;;;;;6.73;5.00;;;;;;;;;;5060524;28;20469;-73
2021/03/15 06:50:16;;;;;;;6.83;5.77;;;;;;;;;;5058130;28;20508;-74
2021/03/15 06:53:00;;;;;;;6.80;4.77;;;;;;;;;;5059241;28;20615;-75
2021/03/15 06:55:34;;;;;;;5.30;4.20;;;;;;;;;;5062197;28;20453;-74
2021/03/15 06:58:02;;;;;;;9.03;4.53;;;;;;;;;;5057603;28;20833;-74
2021/03/15 07:00:30;;;;;;;5.50;3.90;;;;;;;;;;5058023;28;21145;-75
2021/03/15 07:02:58;;;;;;;3.40;2.03;;;;;;;;;;5057690;28;20455;-72
2021/03/15 07:05:28;;;;;;;5.03;3.10;;;;;;;;;;5059047;28;20455;-73
2021/03/15 07:07:56;;;;;;;8.97;4.60;;;;;;;;;;5058863;28;20468;-73
2021/03/15 07:10:26;;;;;;;10.27;5.20;;;;;;;;;;5058015;28;20850;-74
2021/03/15 07:13:12;;;;;;;6.63;4.70;;;;;;;;;;5058053;28;20459;-73
2021/03/15 07:15:50;;;;;;;20.73;7.13;;;;;;;;;;5058777;28;20519;-74
2021/03/15 07:18:18;;;;;;;7.93;4.37;;;;;;;;;;5057121;28;20445;-74
2021/03/15 07:20:52;;;;;;;12.57;4.73;;;;;;;;;;5057691;28;20494;-73
2021/03/15 07:26:21;;;;;;;11.50;5.43;;;;;;;;;;5054490;28;20817;-74
2021/03/15 07:28:52;;;;;;;9.00;5.13;;;;;;;;;;5057985;28;20761;-75
2021/03/15 07:31:30;;;;;;;6.63;4.37;;;;;;;;;;5057120;28;20461;-75
2021/03/15 07:34:12;;;;;;;7.63;4.50;;;;;;;;;;5057903;28;20528;-74
2021/03/15 07:37:02;;;;;;;7.33;3.77;;;;;;;;;;5058815;28;20499;-74
2021/03/15 07:39:35;;;;;;;7.87;4.90;;;;;;;;;;5055547;28;20484;-74
2021/03/15 07:42:08;;;;;;;12.10;4.50;;;;;;;;;;5059184;28;20468;-74
2021/03/15 07:44:46;;;;;;;10.33;3.90;;;;;;;;;;5060894;28;20458;-74
2021/03/15 07:47:35;;;;;;;3.93;2.90;;;;;;;;;;5062601;28;20462;-73
2021/03/15 07:50:07;;;;;;;8.50;4.57;;;;;;;;;;5059013;28;20491;-74
2021/03/15 07:52:41;;;;;;;15.80;4.90;;;;;;;;;;5058181;28;20472;-76
2021/03/15 07:55:19;;;;;;;7.00;4.10;;;;;;;;;;5057712;28;20880;-75
2021/03/15 07:57:47;;;;;;;6.63;3.13;;;;;;;;;;5068718;28;20540;-74
2021/03/15 08:00:15;;;;;;;9.70;4.27;;;;;;;;;;5062087;28;20530;-75
2021/03/15 08:02:43;;;;;;;13.80;3.60;;;;;;;;;;5065911;28;20460;-72
2021/03/15 08:05:18;;;;;;;6.57;3.37;;;;;;;;;;5061455;28;20908;-73
2021/03/15 08:10:55;;;;;;;7.10;3.60;;;;;;;;;;5042347;28;20518;-75
2021/03/15 08:13:42;;;;;;;4.73;3.27;;;;;;;;;;5041599;28;20888;-75
2021/03/15 08:16:34;;;;;;;6.57;3.60;;;;;;;;;;5065953;28;20496;-75
2021/03/15 08:19:36;;;;;;;6.63;4.33;;;;;;;;;;5057283;28;20445;-76
2021/03/15 08:22:05;;;;;;;7.20;4.13;;;;;;;;;;5052840;28;20469;-75
2021/03/15 08:24:35;;;;;;;9.13;4.47;;;;;;;;;;5057816;28;20450;-75
2021/03/15 08:30:02;;;;;;;4.77;2.47;;;;;;;;;;5056714;28;20451;-75
2021/03/15 08:32:55;;;;;;;7.47;4.40;;;;;;;;;;5058404;28;20540;-75
2021/03/15 08:35:33;;;;;;;8.70;3.67;;;;;;;;;;5075102;28;20722;-75
2021/03/15 08:38:17;;;;;;;18.07;9.13;;;;;;;;;;5078469;28;20917;-75
2021/03/15 08:40:58;;;;;;;10.50;4.70;;;;;;;;;;5076756;28;20498;-74
2021/03/15 08:43:40;;;;;;;5.03;2.93;;;;;;;;;;5069327;28;20457;-74
2021/03/15 08:46:11;;;;;;;13.47;5.53;;;;;;;;;;5077109;28;20453;-74
2021/03/15 08:48:57;;;;;;;12.93;5.53;;;;;;;;;;5076772;28;20446;-76
2021/03/15 08:51:45;;;;;;;6.77;3.50;;;;;;;;;;5057312;28;20477;-74
2021/03/15 08:54:31;;;;;;;9.67;4.87;;;;;;;;;;5056536;28;20759;-74
2021/03/15 08:56:59;;;;;;;3.60;2.47;;;;;;;;;;5028806;28;20515;-74
2021/03/15 08:59:51;;;;;;;8.93;3.40;;;;;;;;;;5059992;28;20489;-75
2021/03/15 09:02:45;;;;;;;11.33;4.47;;;;;;;;;;5074837;28;20883;-76
2021/03/15 09:05:27;;;;;;;8.07;3.70;;;;;;;;;;5062758;28;20885;-75
2021/03/15 09:08:00;;;;;;;7.30;4.03;;;;;;;;;;5061387;28;20476;-73
2021/03/15 09:10:39;;;;;;;9.83;4.07;;;;;;;;;;5068992;28;20508;-75
2021/03/15 09:13:35;;;;;;;6.73;3.83;;;;;;;;;;5069880;28;20536;-75
2021/03/15 09:16:08;;;;;;;11.60;3.70;;;;;;;;;;5041450;28;20458;-75
2021/03/15 09:19:00;;;;;;;3.47;2.23;;;;;;;;;;5055110;28;20773;-75
2021/03/15 09:21:49;;;;;;;6.90;4.10;;;;;;;;;;5063974;28;20541;-75
2021/03/15 09:24:37;;;;;;;6.67;4.50;;;;;;;;;;5059796;28;20494;-76
2021/03/15 09:27:27;;;;;;;8.73;4.70;;;;;;;;;;5056530;28;20492;-75
2021/03/15 09:30:00;;;;;;;5.37;3.37;;;;;;;;;;5055474;28;20464;-75
2021/03/15 09:32:29;;;;;;;7.37;4.70;;;;;;;;;;5055588;28;20454;-75
2021/03/15 09:34:58;;;;;;;8.63;4.77;;;;;;;;;;5055274;28;20453;-75
2021/03/15 09:37:27;;;;;;;10.77;3.93;;;;;;;;;;5056629;28;20483;-76
2021/03/15 09:40:01;;;;;;;7.10;3.10;;;;;;;;;;5075486;28;20478;-76
2021/03/15 09:42:40;;;;;;;8.27;4.10;;;;;;;;;;5075660;28;20809;-76
2021/03/15 09:45:24;;;;;;;6.17;3.27;;;;;;;;;;5075027;28;20731;-76
2021/03/15 09:50:48;;;;;;;4.83;2.70;;;;;;;;;;5081749;28;20433;-76
2021/03/15 09:56:20;;;;;;;3.90;1.83;;;;;;;;;;5087968;28;20506;-76
2021/03/15 09:59:13;;;;;;;7.10;3.30;;;;;;;;;;5054781;28;20460;-76
2021/03/15 10:01:53;;;;;;;5.97;3.00;;;;;;;;;;5061985;28;20465;-77
2021/03/15 10:04:33;;;;;;;12.77;3.20;;;;;;;;;;5065917;28;20441;-77
2021/03/15 10:07:13;;;;;;;4.40;2.43;;;;;;;;;;5054178;28;20858;-76
2021/03/15 10:09:53;;;;;;;4.73;1.53;;;;;;;;;;5054699;28;20560;-76
2021/03/15 10:12:58;;;;;;;4.30;2.00;;;;;;;;;;5062972;28;20461;-76
2021/03/15 10:15:45;;;;;;;5.10;1.70;;;;;;;;;;5077264;28;21105;-75
2021/03/15 10:18:20;;;;;;;8.93;1.57;;;;;;;;;;5066075;28;20462;-76
2021/03/15 10:21:01;;;;;;;2.37;0.90;;;;;;;;;;5065960;28;20479;-76
2021/03/15 10:23:43;;;;;;;10.20;2.73;;;;;;;;;;5068774;28;20436;-76
2021/03/15 10:26:17;;;;;;;1.80;0.80;;;;;;;;;;5067375;28;20451;-74
2021/03/15 10:28:48;;;;;;;2.90;1.50;;;;;;;;;;5067516;28;20448;-74
2021/03/15 10:31:18;;;;;;;4.07;2.07;;;;;;;;;;5058775;28;20461;-74
2021/03/15 10:33:53;;;;;;;4.43;1.03;;;;;;;;;;5060326;28;20536;-75
2021/03/15 10:36:22;;;;;;;4.73;1.60;;;;;;;;;;5073239;28;20448;-75
2021/03/15 10:38:57;;;;;;;6.00;2.17;;;;;;;;;;5074024;28;20449;-73
2021/03/15 10:41:40;;;;;;;2.37;0.90;;;;;;;;;;5064515;28;20487;-74
2021/03/15 10:44:09;;;;;;;7.13;1.13;;;;;;;;;;5072552;28;20507;-75
2021/03/15 10:46:50;;;;;;;1.80;0.80;;;;;;;;;;5069050;28;20448;-74
2021/03/15 10:49:31;;;;;;;2.70;0.97;;;;;;;;;;5066615;28;20462;-74
2021/03/15 10:52:01;;;;;;;5.27;1.50;;;;;;;;;;5059386;28;20458;-74
2021/03/15 10:54:35;;;;;;;2.80;1.07;;;;;;;;;;5068189;28;20518;-73
2021/03/15 10:57:13;;;;;;;7.73;1.27;;;;;;;;;;5067244;28;20462;-73
2021/03/15 10:59:41;;;;;;;4.90;1.40;;;;;;;;;;5060545;28;20484;-74
2021/03/15 11:02:21;;;;;;;5.33;1.17;;;;;;;;;;5063157;28;20886;-75
2021/03/15 11:05:01;;;;;;;5.87;0.97;;;;;;;;;;5061082;28;20987;-74
2021/03/15 11:07:39;;;;;;;5.50;1.93;;;;;;;;;;5058662;28;20470;-76
2021/03/15 11:10:15;;;;;;;2.77;1.00;;;;;;;;;;5060026;28;20854;-75
2021/03/15 11:12:48;;;;;;;5.23;1.30;;;;;;;;;;5072625;28;20463;-76
2021/03/15 11:18:15;;;;;;;2.47;1.00;;;;;;;;;;5057551;28;20449;-75
2021/03/15 11:20:49;;;;;;;4.30;1.13;;;;;;;;;;5059794;28;20493;-76
2021/03/15 11:23:36;;;;;;;5.17;0.97;;;;;;;;;;5063503;28;20452;-75
2021/03/15 11:26:06;;;;;;;4.20;1.77;;;;;;;;;;5056467;28;20453;-75
2021/03/15 11:28:42;;;;;;;5.00;1.33;;;;;;;;;;5059072;28;20479;-75
2021/03/15 11:31:17;;;;;;;5.20;1.40;;;;;;;;;;5060081;28;20452;-74
2021/03/15 11:33:59;;;;;;;5.30;1.07;;;;;;;;;;5070608;28;20463;-75
2021/03/15 11:39:43;;;;;;;8.30;1.80;;;;;;;;;;5012961;28;20465;-76
2021/03/15 11:42:24;;;;;;;10.93;1.53;;;;;;;;;;5015998;28;20472;-75
2021/03/15 11:48:01;;;;;;;4.13;1.10;;;;;;;;;;5015770;28;20461;-74
2021/03/15 11:50:31;;;;;;;6.93;1.20;;;;;;;;;;5020846;28;20531;-74
2021/03/15 11:52:59;;;;;;;13.43;2.23;;;;;;;;;;5059612;28;20525;-74
2021/03/15 11:55:46;;;;;;;7.10;1.60;;;;;;;;;;5072042;28;20456;-78
2021/03/15 11:58:23;;;;;;;6.07;1.83;;;;;;;;;;5060941;28;20427;-75
2021/03/15 12:00:52;;;;;;;6.60;1.47;;;;;;;;;;5059586;28;20494;-75
2021/03/15 12:03:22;;;;;;;8.10;1.50;;;;;;;;;;5061363;28;20897;-74
2021/03/15 12:08:55;;;;;;;5.13;1.53;;;;;;;;;;5056444;28;20453;-73
2021/03/15 12:11:26;;;;;;;5.70;1.30;;;;;;;;;;5057688;28;20451;-74
2021/03/15 12:14:02;;;;;;;10.33;2.60;;;;;;;;;;5067491;28;20915;-73
2021/03/15 12:16:29;;;;;;;10.53;2.87;;;;;;;;;;5077153;28;20630;-74
2021/03/15 12:18:57;;;;;;;7.33;1.70;;;;;;;;;;5072801;28;20789;-74
2021/03/15 12:21:25;;;;;;;12.30;1.80;;;;;;;;;;5060498;28;20739;-74
2021/03/15 12:24:00;;;;;;;3.63;1.50;;;;;;;;;;5058544;28;20526;-74
2021/03/15 12:26:30;;;;;;;4.03;1.50;;;;;;;;;;5057592;28;20710;-73
2021/03/15 12:29:02;;;;;;;4.83;1.20;;;;;;;;;;5057693;28;20861;-74
2021/03/15 12:31:30;;;;;;;15.37;2.07;;;;;;;;;;5057613;28;20438;-74
2021/03/15 12:33:59;;;;;;;5.77;1.67;;;;;;;;;;5056154;28;20558;-74
2021/03/15 12:36:27;;;;;;;3.57;1.37;;;;;;;;;;5056725;28;20456;-74
2021/03/15 12:38:55;;;;;;;2.53;0.90;;;;;;;;;;5054466;28;20460;-74
2021/03/15 12:41:29;;;;;;;3.30;0.60;;;;;;;;;;5059610;28;20967;-74
2021/03/15 12:43:56;;;;;;;3.73;1.40;;;;;;;;;;5055469;28;20481;-74
2021/03/15 12:46:26;;;;;;;2.20;1.00;;;;;;;;;;5054598;28;20462;-74
2021/03/15 12:49:02;;;;;;;6.03;1.53;;;;;;;;;;5055236;28;20461;-73
2021/03/15 12:51:38;;;;;;;2.37;0.93;;;;;;;;;;5055128;28;20544;-74
2021/03/15 12:54:08;;;;;;;3.93;1.00;;;;;;;;;;5066222;28;20930;-74
2021/03/15 12:56:52;;;;;;;5.77;1.30;;;;;;;;;;5060829;28;20738;-74
2021/03/15 12:59:20;;;;;;;8.00;1.80;;;;;;;;;;5053855;28;20545;-74
2021/03/15 13:01:48;;;;;;;8.60;1.57;;;;;;;;;;5064393;28;20449;-74
2021/03/15 13:04:16;;;;;;;4.37;1.60;;;;;;;;;;5074548;28;20486;-74
2021/03/15 13:06:44;;;;;;;5.13;1.10;;;;;;;;;;5075258;28;20503;-75
2021/03/15 13:09:23;;;;;;;4.60;1.23;;;;;;;;;;5063256;28;20478;-74
2021/03/15 13:17:36;;;;;;;1.83;0.50;;;;;;;;;;5067540;28;20514;-75
2021/03/15 13:20:18;;;;;;;1.80;0.93;;;;;;;;;;5071763;28;20586;-75
2021/03/15 13:22:52;;;;;;;5.00;1.00;;;;;;;;;;5056290;28;20520;-76
2021/03/15 13:25:20;;;;;;;3.67;1.40;;;;;;;;;;5055301;28;20681;-75
2021/03/15 13:27:53;;;;;;;3.27;1.37;;;;;;;;;;5074678;28;20447;-75
2021/03/15 13:30:44;;;;;;;;;;;;;;;;;;;;;
2021/03/15 13:35:55;;;;;;;2.43;0.70;;;;;;;;;;5052742;28;20545;-74
2021/03/15 13:38:31;;;;;;;6.57;0.80;;;;;;;;;;5055455;28;20514;-75
2021/03/15 13:41:01;;;;;;;1.30;0.70;;;;;;;;;;5053616;28;20479;-74
2021/03/15 13:43:32;;;;;;;5.20;0.90;;;;;;;;;;5054614;28;20461;-74
2021/03/15 13:46:00;;;;;;;4.10;2.17;;;;;;;;;;5053510;28;20457;-75
2021/03/15 13:48:32;;;;;;;3.33;1.13;;;;;;;;;;5056849;28;20501;-74
2021/03/15 13:51:00;;;;;;;4.37;0.90;;;;;;;;;;5062805;28;20452;-75
2021/03/15 13:53:32;;;;;;;2.17;0.80;;;;;;;;;;5065089;28;20490;-75
2021/03/15 13:56:16;;;;;;;1.53;0.77;;;;;;;;;;5070868;28;20456;-74
2021/03/15 13:58:52;;;;;;;5.83;1.13;;;;;;;;;;5079163;28;20540;-74
2021/03/15 14:01:22;;;;;;;2.13;1.00;;;;;;;;;;5060075;28;20636;-73
2021/03/15 14:03:59;;;;;;;3.20;1.20;;;;;;;;;;5058962;28;20459;-75
2021/03/15 14:06:39;;;;;;;2.10;0.77;;;;;;;;;;5060395;28;20553;-73
2021/03/15 14:09:09;;;;;;;2.57;0.83;;;;;;;;;;5059934;28;20865;-75
2021/03/15 14:11:41;;;;;;;3.13;1.00;;;;;;;;;;5065252;28;20513;-73
2021/03/15 14:14:20;;;;;;;1.57;0.80;;;;;;;;;;5079996;28;20532;-74
2021/03/15 14:17:13;;;;;;;1.93;0.70;;;;;;;;;;5078422;28;20517;-74
2021/03/15 14:19:49;;;;;;;1.60;0.70;;;;;;;;;;5072498;28;20457;-75
2021/03/15 14:22:24;;;;;;;2.03;1.10;;;;;;;;;;5057940;28;20467;-75
2021/03/15 14:24:53;;;;;;;2.47;1.17;;;;;;;;;;5055986;28;20445;-75
2021/03/15 14:27:26;;;;;;;4.93;0.90;;;;;;;;;;5055080;28;20840;-75
2021/03/15 14:30:01;;;;;;;1.40;0.70;;;;;;;;;;5055651;28;20521;-74
2021/03/15 14:32:49;;;;;;;1.27;0.60;;;;;;;;;;5065088;28;20464;-75
2021/03/15 14:35:17;;;;;;;7.20;1.57;;;;;;;;;;5075676;28;20865;-75
2021/03/15 14:37:47;;;;;;;2.07;1.33;;;;;;;;;;5078398;28;20885;-74
2021/03/15 14:40:16;;;;;;;6.37;1.00;;;;;;;;;;5076207;28;20559;-75
2021/03/15 14:42:47;;;;;;;3.00;0.80;;;;;;;;;;5076065;28;20863;-73
2021/03/15 14:45:14;;;;;;;2.17;1.07;;;;;;;;;;5075917;28;20445;-74
2021/03/15 14:47:42;;;;;;;3.33;1.33;;;;;;;;;;5058053;28;20455;-74
2021/03/15 14:50:10;;;;;;;3.77;1.00;;;;;;;;;;5056479;28;20445;-75
2021/03/15 14:52:39;;;;;;;1.50;0.80;;;;;;;;;;5057432;28;20510;-74
2021/03/15 14:55:08;;;;;;;1.50;0.70;;;;;;;;;;5057543;28;20475;-75
2021/03/15 14:57:39;;;;;;;2.00;1.40;;;;;;;;;;5062394;28;21002;-74
2021/03/15 15:00:12;;;;;;;2.80;0.90;;;;;;;;;;5063908;28;20493;-74
2021/03/15 15:02:47;;;;;;;7.53;1.50;;;;;;;;;;5069059;28;20749;-75
2021/03/15 15:05:38;;;;;;;4.77;1.13;;;;;;;;;;5071562;28;20454;-75
2021/03/15 15:08:07;;;;;;;4.07;1.27;;;;;;;;;;5067027;28;20498;-76
2021/03/15 15:10:46;;;;;;;8.67;1.73;;;;;;;;;;5074281;28;20548;-75
2021/03/15 15:13:18;;;;;;;2.07;0.73;;;;;;;;;;5061248;28;20466;-74
2021/03/15 15:15:49;;;;;;;6.33;2.60;;;;;;;;;;5079841;28;20458;-74
2021/03/15 15:18:21;;;;;;;1.30;0.50;;;;;;;;;;5077680;28;20479;-74
2021/03/15 15:20:49;;;;;;;3.07;0.73;;;;;;;;;;5072175;28;20528;-75
2021/03/15 15:23:21;;;;;;;4.50;0.97;;;;;;;;;;5059027;28;20464;-76
2021/03/15 15:25:51;;;;;;;2.90;1.00;;;;;;;;;;5073860;28;20465;-75
2021/03/15 15:28:28;;;;;;;6.90;0.90;;;;;;;;;;5059722;28;20555;-74
2021/03/15 15:30:56;;;;;;;4.67;0.90;;;;;;;;;;5068769;28;20453;-73
2021/03/15 15:33:25;;;;;;;3.10;1.07;;;;;;;;;;5064435;28;20528;-73
2021/03/15 15:35:55;;;;;;;2.90;1.10;;;;;;;;;;5065228;28;20493;-75
2021/03/15 15:38:26;;;;;;;2.90;0.73;;;;;;;;;;5077202;28;20983;-75
2021/03/15 15:40:58;;;;;;;3.33;0.90;;;;;;;;;;5079004;28;20496;-75
2021/03/15 15:43:39;;;;;;;4.87;1.67;;;;;;;;;;5076145;28;20483;-75
2021/03/15 15:46:23;;;;;;;3.03;1.00;;;;;;;;;;5073911;28;20449;-74
2021/03/15 15:48:51;;;;;;;3.67;0.83;;;;;;;;;;5078623;28;20555;-74
2021/03/15 15:51:26;;;;;;;3.37;1.13;;;;;;;;;;5068029;28;20566;-75